createdAt,value
2023-02-11T00:01:11.452Z,73.53
2023-02-11T00:03:39.028Z,64.30
2023-02-11T00:06:09.578Z,66.25
2023-02-11T00:08:37.412Z,67.03
2023-02-11T00:11:05.003Z,62.13
2023-02-11T00:13:32.829Z,63.10
2023-02-11T00:15:59.953Z,66.40
2023-02-11T00:18:28.446Z,66.85
2023-02-11T00:20:55.609Z,64.75
2023-02-11T00:23:23.130Z,59.17
2023-02-11T00:25:50.543Z,54.55
2023-02-11T00:28:18.296Z,56.15
2023-02-11T00:30:45.676Z,61.95
2023-02-11T00:33:13.237Z,60.28
2023-02-11T00:35:40.359Z,55.65
2023-02-11T00:38:08.904Z,59.25
2023-02-11T00:40:36.424Z,60.42
2023-02-11T00:43:04.516Z,55.92
2023-02-11T00:45:31.852Z,52.25
2023-02-11T00:47:59.472Z,53.95
2023-02-11T00:50:28.792Z,52.28
2023-02-11T00:52:56.697Z,49.78
2023-02-11T00:55:23.916Z,56.80
2023-02-11T00:57:51.950Z,53.08
2023-02-11T01:00:19.230Z,52.40
2023-02-11T01:02:46.938Z,49.50
2023-02-11T01:05:14.345Z,53.20
2023-02-11T01:07:42.106Z,48.25
2023-02-11T01:10:09.459Z,48.17
2023-02-11T01:12:37.508Z,45.55
2023-02-11T01:15:05.932Z,46.85
2023-02-11T01:17:34.297Z,51.88
2023-02-11T01:20:06.945Z,48.50
2023-02-11T01:22:37.580Z,48.75
2023-02-11T01:25:05.062Z,47.97
2023-02-11T01:27:32.833Z,45.53
2023-02-11T01:30:00.187Z,52.85
2023-02-11T01:32:27.713Z,47.92
2023-02-11T01:34:55.137Z,41.85
2023-02-11T01:37:22.557Z,42.90
2023-02-11T01:39:50.076Z,38.83
2023-02-11T01:42:20.937Z,50.63
2023-02-11T01:44:52.780Z,31.63
2023-02-11T01:47:21.381Z,43.43
2023-02-11T01:49:52.738Z,43.20
2023-02-11T01:52:31.952Z,43.90
2023-02-11T01:55:21.118Z,43.00
2023-02-11T01:57:52.599Z,51.38
2023-02-11T02:00:22.950Z,44.63
2023-02-11T02:02:56.793Z,47.15
2023-02-11T02:05:31.476Z,39.70
2023-02-11T02:08:10.570Z,47.88
2023-02-11T02:10:41.439Z,51.38
2023-02-11T02:13:09.483Z,44.08
2023-02-11T02:15:38.067Z,46.90
2023-02-11T02:18:28.524Z,41.47
2023-02-11T02:21:33.616Z,44.47
2023-02-11T02:24:04.350Z,42.28
2023-02-11T02:27:13.897Z,37.88
2023-02-11T02:29:56.899Z,49.30
2023-02-11T02:32:42.940Z,43.22
2023-02-11T02:35:31.984Z,42.67
2023-02-11T02:38:12.751Z,43.95
2023-02-11T02:40:48.053Z,48.55
2023-02-11T02:43:15.807Z,45.78
2023-02-11T02:45:43.334Z,52.38
2023-02-11T02:48:28.149Z,48.42
2023-02-11T02:51:33.555Z,43.20
2023-02-11T02:54:38.176Z,43.83
2023-02-11T02:57:24.720Z,43.33
2023-02-11T02:59:58.043Z,52.97
2023-02-11T03:02:56.405Z,46.03
2023-02-11T03:06:09.314Z,40.92
2023-02-11T03:08:57.756Z,37.40
2023-02-11T03:11:26.325Z,45.13
2023-02-11T03:13:55.281Z,46.30
2023-02-11T03:16:26.946Z,44.90
2023-02-11T03:19:02.628Z,47.37
2023-02-11T03:21:31.623Z,54.28
2023-02-11T03:24:04.033Z,46.30
2023-02-11T03:26:38.577Z,44.30
2023-02-11T03:29:25.201Z,43.30
2023-02-11T03:32:30.725Z,42.22
2023-02-11T03:35:08.244Z,43.40
2023-02-11T03:37:40.340Z,38.13
2023-02-11T03:40:12.077Z,43.17
2023-02-11T03:42:44.331Z,43.13
2023-02-11T03:45:15.910Z,50.17
2023-02-11T03:47:47.140Z,35.25
2023-02-11T03:50:15.810Z,46.60
2023-02-11T03:52:43.191Z,44.40
2023-02-11T03:55:14.005Z,40.03
2023-02-11T03:57:41.451Z,43.17
2023-02-11T04:00:12.166Z,41.17
2023-02-11T04:02:40.246Z,41.13
2023-02-11T04:05:14.162Z,41.95
2023-02-11T04:07:41.575Z,38.88
2023-02-11T04:10:09.438Z,43.75
2023-02-11T04:12:36.607Z,39.63
2023-02-11T04:15:04.925Z,39.03
2023-02-11T04:17:32.200Z,42.05
2023-02-11T04:19:59.805Z,47.22
2023-02-11T04:22:27.322Z,44.42
2023-02-11T04:24:54.720Z,39.40
2023-02-11T04:27:21.934Z,47.72
2023-02-11T04:29:49.724Z,47.47
2023-02-11T04:32:16.938Z,48.28
2023-02-11T04:34:44.606Z,49.65
2023-02-11T04:37:11.941Z,48.17
2023-02-11T04:39:39.411Z,47.05
2023-02-11T04:42:06.922Z,50.83
2023-02-11T04:44:34.726Z,47.97
2023-02-11T04:47:02.104Z,52.42
2023-02-11T04:49:29.786Z,47.90
2023-02-11T04:51:57.137Z,41.22
2023-02-11T04:54:24.615Z,44.20
2023-02-11T04:56:51.837Z,46.42
2023-02-11T04:59:19.785Z,49.15
2023-02-11T05:01:47.241Z,49.90
2023-02-11T05:04:14.850Z,49.00
2023-02-11T05:06:42.176Z,46.70
2023-02-11T05:09:11.764Z,51.40
2023-02-11T05:11:39.638Z,48.70
2023-02-11T05:14:07.427Z,46.70
2023-02-11T05:16:34.941Z,50.47
2023-02-11T05:19:02.695Z,45.65
2023-02-11T05:21:30.096Z,51.28
2023-02-11T05:23:58.033Z,48.08
2023-02-11T05:26:25.703Z,53.95
2023-02-11T05:28:53.316Z,48.10
2023-02-11T05:31:20.675Z,52.78
2023-02-11T05:33:48.334Z,49.13
2023-02-11T05:36:16.970Z,53.35
2023-02-11T05:38:44.487Z,47.72
2023-02-11T05:41:12.100Z,48.80
2023-02-11T05:43:39.969Z,52.70
2023-02-11T05:46:07.298Z,52.90
2023-02-11T05:48:35.341Z,54.38
2023-02-11T05:51:02.761Z,52.50
2023-02-11T05:53:30.727Z,48.00
2023-02-11T05:55:58.125Z,47.72
2023-02-11T05:58:25.913Z,51.60
2023-02-11T06:00:53.189Z,54.45
2023-02-11T06:03:21.234Z,56.53
2023-02-11T06:05:48.703Z,49.97
2023-02-11T06:08:16.535Z,47.78
2023-02-11T06:10:45.832Z,54.38
2023-02-11T06:13:13.657Z,48.47
2023-02-11T06:15:40.746Z,51.03
2023-02-11T06:18:08.846Z,49.33
2023-02-11T06:20:36.197Z,51.53
2023-02-11T06:23:03.732Z,53.15
2023-02-11T06:25:30.929Z,58.25
2023-02-11T06:27:58.416Z,52.60
2023-02-11T06:30:25.644Z,49.50
2023-02-11T06:32:53.459Z,58.90
2023-02-11T06:35:20.664Z,60.05
2023-02-11T06:37:49.830Z,61.92
2023-02-11T06:40:17.055Z,55.15
2023-02-11T06:42:44.822Z,52.75
2023-02-11T06:45:13.445Z,59.42
2023-02-11T06:47:42.183Z,60.03
2023-02-11T06:50:13.303Z,60.03
2023-02-11T06:52:41.795Z,61.55
2023-02-11T06:55:09.314Z,60.63
2023-02-11T06:57:36.925Z,59.35
2023-02-11T07:00:05.695Z,62.15
2023-02-11T07:02:33.504Z,58.35
2023-02-11T07:05:00.816Z,63.60
2023-02-11T07:07:28.665Z,69.93
2023-02-11T07:09:56.113Z,61.95
2023-02-11T07:12:24.011Z,63.58
2023-02-11T07:14:51.454Z,71.35
2023-02-11T07:17:19.149Z,63.58
2023-02-11T07:19:46.438Z,66.57
2023-02-11T07:22:14.125Z,68.97
2023-02-11T07:24:41.800Z,68.97
2023-02-11T07:27:09.576Z,65.13
2023-02-11T07:29:36.890Z,73.68
2023-02-11T07:32:04.661Z,71.00
2023-02-11T07:34:32.025Z,77.15
2023-02-11T07:36:59.747Z,69.95
2023-02-11T07:39:27.676Z,67.78
2023-02-11T07:41:55.558Z,84.70
2023-02-11T07:44:23.584Z,77.07
2023-02-11T07:46:51.255Z,78.93
2023-02-11T07:49:18.519Z,76.32
2023-02-11T07:51:47.366Z,77.25
2023-02-11T07:54:14.603Z,80.95
2023-02-11T07:56:42.255Z,78.68
2023-02-11T07:59:11.150Z,73.50
2023-02-11T08:01:39.044Z,74.10
2023-02-11T08:04:06.245Z,76.80
2023-02-11T08:06:35.480Z,79.13
2023-02-11T08:09:07.971Z,80.28
2023-02-11T08:14:03.118Z,85.72
2023-02-11T08:16:33.486Z,84.95
2023-02-11T08:19:04.034Z,79.95
2023-02-11T08:21:31.911Z,72.13
2023-02-11T08:23:59.222Z,75.35
2023-02-11T08:26:29.178Z,67.88
2023-02-11T08:28:57.450Z,67.18
2023-02-11T08:31:28.132Z,85.25
2023-02-11T08:33:58.291Z,65.75
2023-02-11T08:36:29.418Z,84.05
2023-02-11T08:39:16.034Z,79.20
2023-02-11T08:41:47.179Z,79.63
2023-02-11T08:44:14.496Z,77.55
2023-02-11T08:46:41.884Z,78.40
2023-02-11T08:49:09.299Z,81.43
2023-02-11T08:51:37.039Z,78.93
2023-02-11T08:54:04.589Z,73.55
2023-02-11T08:56:33.371Z,72.85
2023-02-11T08:59:00.591Z,73.97
2023-02-11T09:01:30.412Z,78.00
2023-02-11T09:03:59.083Z,76.85
2023-02-11T09:06:27.913Z,79.35
2023-02-11T09:08:56.649Z,68.30
2023-02-11T09:11:36.792Z,71.68
2023-02-11T09:14:05.052Z,69.90
2023-02-11T09:16:36.567Z,74.93
2023-02-11T09:19:06.383Z,79.18
2023-02-11T09:21:35.062Z,72.80
2023-02-11T09:24:02.866Z,77.65
2023-02-11T09:26:32.553Z,91.72
2023-02-11T09:29:00.515Z,80.68
2023-02-11T09:31:30.695Z,89.50
2023-02-11T09:34:00.612Z,89.80
2023-02-11T09:36:34.440Z,96.47
2023-02-11T09:39:02.705Z,55.20
2023-02-11T09:41:37.798Z,82.88
2023-02-11T09:44:09.952Z,86.85
2023-02-11T09:46:41.588Z,86.45
2023-02-11T09:49:19.077Z,86.78
2023-02-11T09:51:53.898Z,86.13
2023-02-11T09:54:30.419Z,89.88
2023-02-11T09:56:58.238Z,85.88
2023-02-11T09:59:25.505Z,86.55
2023-02-11T10:02:01.035Z,95.28
2023-02-11T10:04:47.156Z,86.97
2023-02-11T10:07:56.598Z,93.28
2023-02-11T10:10:23.958Z,91.22
2023-02-11T10:12:56.698Z,95.32
2023-02-11T10:15:27.437Z,99.43
2023-02-11T10:18:16.977Z,103.45
2023-02-11T10:21:26.397Z,108.20
2023-02-11T10:23:56.865Z,106.65
2023-02-11T10:26:24.336Z,108.95
2023-02-11T10:28:54.725Z,93.20
2023-02-11T10:31:26.678Z,106.53
2023-02-11T10:34:04.723Z,76.68
2023-02-11T10:36:37.377Z,93.07
2023-02-11T10:39:24.509Z,105.97
2023-02-11T10:41:55.968Z,97.80
2023-02-11T10:44:43.748Z,96.65
2023-02-11T10:47:22.929Z,100.30
2023-02-11T10:49:50.607Z,120.40
2023-02-11T10:52:17.981Z,112.05
2023-02-11T10:55:04.239Z,120.72
2023-02-11T10:57:35.550Z,107.15
2023-02-11T11:00:09.079Z,101.57
2023-02-11T11:02:39.011Z,119.00
2023-02-11T11:05:16.552Z,110.78
2023-02-11T11:07:54.810Z,129.35
2023-02-11T11:10:47.150Z,101.00
2023-02-11T11:13:32.430Z,122.35
2023-02-11T11:16:28.323Z,118.78
2023-02-11T11:19:07.840Z,123.50
2023-02-11T11:21:47.370Z,124.32
2023-02-11T11:24:38.666Z,129.15
2023-02-11T11:27:06.528Z,120.47
2023-02-11T11:29:45.273Z,128.65
2023-02-11T11:32:20.775Z,128.60
2023-02-11T11:34:56.602Z,121.50
2023-02-11T11:37:28.188Z,122.30
2023-02-11T11:39:59.722Z,135.95
2023-02-11T11:42:35.015Z,127.68
2023-02-11T11:45:23.302Z,123.25
2023-02-11T11:48:04.323Z,120.63
2023-02-11T11:50:37.957Z,125.10
2023-02-11T11:53:11.263Z,125.90
2023-02-11T11:55:42.619Z,131.13
2023-02-11T11:58:23.777Z,83.30
2023-02-11T12:01:09.958Z,134.93
2023-02-11T12:04:05.777Z,127.28
2023-02-11T12:06:36.215Z,124.85
2023-02-11T12:09:08.904Z,133.68
2023-02-11T12:12:00.607Z,119.15
2023-02-11T12:14:35.326Z,128.50
2023-02-11T12:17:33.284Z,129.90
2023-02-11T12:20:23.878Z,137.63
2023-02-11T12:23:30.342Z,135.90
2023-02-11T12:26:16.071Z,144.18
2023-02-11T12:29:40.630Z,140.98
2023-02-11T12:32:14.293Z,134.70
2023-02-11T12:34:52.757Z,122.28
2023-02-11T12:37:58.157Z,130.73
2023-02-11T12:40:34.440Z,129.18
2023-02-11T12:43:24.259Z,127.68
2023-02-11T12:46:13.200Z,116.85
2023-02-11T12:49:02.209Z,119.05
2023-02-11T12:52:00.137Z,123.97
2023-02-11T12:54:30.938Z,113.47
2023-02-11T12:57:08.295Z,127.32
2023-02-11T12:59:46.315Z,128.30
2023-02-11T13:02:52.270Z,119.13
2023-02-11T13:05:30.805Z,114.20
2023-02-11T13:08:05.963Z,113.78
2023-02-11T13:10:38.984Z,115.70
2023-02-11T13:13:23.180Z,122.70
2023-02-11T13:16:10.320Z,106.55
2023-02-11T13:18:49.628Z,108.63
2023-02-11T13:21:29.960Z,111.03
2023-02-11T13:24:12.686Z,119.00
2023-02-11T13:26:51.369Z,104.45
2023-02-11T13:29:37.925Z,112.57
2023-02-11T13:32:13.798Z,113.72
2023-02-11T13:34:44.187Z,115.55
2023-02-11T13:37:29.207Z,117.75
2023-02-11T13:40:08.131Z,98.13
2023-02-11T13:42:50.511Z,105.20
2023-02-11T13:45:29.389Z,119.22
2023-02-11T13:47:59.180Z,112.40
2023-02-11T13:50:27.738Z,116.00
2023-02-11T13:53:03.566Z,109.10
2023-02-11T13:55:31.278Z,113.57
2023-02-11T13:58:08.055Z,109.18
2023-02-11T14:00:35.586Z,105.93
2023-02-11T14:03:42.277Z,120.97
2023-02-11T14:06:28.061Z,114.25
2023-02-11T14:09:14.674Z,110.90
2023-02-11T14:11:41.984Z,109.47
2023-02-11T14:14:25.747Z,107.75
2023-02-11T14:16:59.508Z,102.68
2023-02-11T14:19:38.631Z,110.18
2023-02-11T14:22:29.014Z,113.13
2023-02-11T14:24:59.120Z,111.75
2023-02-11T14:27:26.469Z,113.70
2023-02-11T14:30:15.914Z,113.50
2023-02-11T14:32:56.730Z,108.55
2023-02-11T14:35:39.628Z,106.63
2023-02-11T14:38:44.348Z,114.03
2023-02-11T14:41:29.959Z,112.90
2023-02-11T14:44:04.308Z,108.87
2023-02-11T14:46:35.440Z,109.65
2023-02-11T14:49:04.021Z,97.70
2023-02-11T14:51:36.333Z,100.63
2023-02-11T14:54:17.951Z,101.03
2023-02-11T14:56:46.960Z,99.03
2023-02-11T14:59:22.579Z,90.10
2023-02-11T15:01:52.478Z,105.63
2023-02-11T15:04:27.292Z,108.78
2023-02-11T15:06:56.502Z,92.30
2023-02-11T15:09:29.456Z,102.85
2023-02-11T15:14:30.692Z,96.47
2023-02-11T15:17:06.840Z,98.05
2023-02-11T15:19:41.291Z,89.65
2023-02-11T15:22:18.623Z,96.65
2023-02-11T15:24:46.571Z,90.20
2023-02-11T15:27:16.428Z,97.00
2023-02-11T15:29:49.459Z,90.53
2023-02-11T15:34:46.895Z,85.28
2023-02-11T15:37:29.876Z,98.07
2023-02-11T15:40:13.017Z,97.82
2023-02-11T15:42:52.451Z,91.10
2023-02-11T15:45:20.785Z,86.38
2023-02-11T15:47:54.341Z,87.32
2023-02-11T15:50:24.889Z,85.72
2023-02-11T15:52:52.924Z,81.75
2023-02-11T15:55:21.072Z,83.55
2023-02-11T15:57:58.808Z,78.63
2023-02-11T16:00:34.546Z,81.47
2023-02-11T16:03:02.184Z,82.78
2023-02-11T16:05:36.604Z,87.82
2023-02-11T16:08:29.557Z,84.30
2023-02-11T16:11:03.428Z,73.95
2023-02-11T16:13:34.673Z,78.90
2023-02-11T16:16:15.761Z,79.78
2023-02-11T16:19:04.638Z,77.97
2023-02-11T16:21:39.457Z,73.65
2023-02-11T16:24:08.349Z,68.47
2023-02-11T16:26:39.601Z,77.40
2023-02-11T16:29:11.260Z,70.38
2023-02-11T16:31:41.232Z,68.35
2023-02-11T16:34:14.711Z,67.90
2023-02-11T16:36:42.663Z,71.30
2023-02-11T16:39:10.803Z,71.28
2023-02-11T16:41:38.074Z,68.85
2023-02-11T16:44:06.046Z,68.95
2023-02-11T16:46:33.984Z,65.85
2023-02-11T16:49:12.365Z,66.72
2023-02-11T16:51:41.539Z,69.32
2023-02-11T16:54:15.126Z,66.15
2023-02-11T16:56:43.282Z,62.13
2023-02-11T16:59:11.996Z,64.75
2023-02-11T17:01:40.054Z,64.53
2023-02-11T17:04:11.977Z,65.20
2023-02-11T17:06:39.159Z,66.47
2023-02-11T17:09:08.254Z,65.70
2023-02-11T17:11:35.542Z,60.78
2023-02-11T17:14:03.187Z,59.25
2023-02-11T17:16:30.794Z,60.25
2023-02-11T17:18:58.534Z,65.32
2023-02-11T17:21:29.566Z,67.75
2023-02-11T17:23:58.634Z,65.30
2023-02-11T17:26:26.079Z,57.63
2023-02-11T17:28:53.867Z,55.70
2023-02-11T17:31:21.488Z,56.83
2023-02-11T17:33:49.245Z,59.10
2023-02-11T17:36:16.481Z,65.60
2023-02-11T17:38:44.206Z,54.83
2023-02-11T17:41:11.557Z,53.20
2023-02-11T17:43:42.984Z,57.03
2023-02-11T17:46:11.355Z,54.10
2023-02-11T17:48:38.958Z,56.65
2023-02-11T17:51:17.221Z,54.85
2023-02-11T17:53:44.764Z,59.33
2023-02-11T17:56:11.996Z,52.35
2023-02-11T17:58:39.692Z,53.58
2023-02-11T18:01:07.033Z,55.28
2023-02-11T18:03:34.600Z,60.63
2023-02-11T18:06:06.861Z,52.97
2023-02-11T18:08:35.483Z,55.85
2023-02-11T18:11:03.064Z,53.20
2023-02-11T18:13:30.838Z,61.58
2023-02-11T18:16:05.548Z,55.83
2023-02-11T18:18:33.285Z,57.10
2023-02-11T18:21:04.087Z,55.03
2023-02-11T18:23:31.720Z,53.42
2023-02-11T18:25:59.288Z,47.67
2023-02-11T18:28:27.012Z,46.90
2023-02-11T18:30:59.544Z,63.25
2023-02-11T18:33:27.594Z,58.55
2023-02-11T18:35:55.041Z,45.15
2023-02-11T18:38:23.064Z,48.25
2023-02-11T18:40:52.452Z,42.67
2023-02-11T18:43:20.671Z,55.65
2023-02-11T18:45:49.338Z,43.08
2023-02-11T18:48:18.334Z,43.97
2023-02-11T18:50:46.472Z,44.85
2023-02-11T18:53:15.822Z,44.22
2023-02-11T18:55:44.955Z,44.67
2023-02-11T18:58:13.368Z,43.17
2023-02-11T19:00:43.364Z,41.83
2023-02-11T19:03:11.354Z,45.00
2023-02-11T19:05:49.999Z,45.08
2023-02-11T19:08:17.935Z,41.03
2023-02-11T19:10:47.035Z,40.80
2023-02-11T19:13:15.312Z,39.45
2023-02-11T19:15:44.284Z,41.78
2023-02-11T19:18:13.073Z,40.72
2023-02-11T19:20:41.972Z,45.90
2023-02-11T19:23:10.567Z,41.13
2023-02-11T19:25:38.450Z,44.50
2023-02-11T19:28:06.262Z,47.33
2023-02-11T19:30:33.543Z,39.63
2023-02-11T19:33:01.199Z,39.00
2023-02-11T19:35:28.577Z,38.75
2023-02-11T19:37:56.255Z,43.55
2023-02-11T19:40:23.425Z,43.47
2023-02-11T19:42:51.028Z,39.88
2023-02-11T19:45:18.476Z,39.78
2023-02-11T19:47:46.286Z,40.85
2023-02-11T19:50:13.516Z,37.78
2023-02-11T19:52:41.318Z,38.88
2023-02-11T19:55:09.853Z,43.38
2023-02-11T19:57:37.617Z,42.63
2023-02-11T20:00:06.302Z,45.65
2023-02-11T20:02:40.470Z,41.33
2023-02-11T20:05:08.336Z,33.55
2023-02-11T20:07:35.936Z,45.38
2023-02-11T20:10:03.521Z,34.25
2023-02-11T20:12:31.354Z,36.40
2023-02-11T20:14:58.592Z,37.95
2023-02-11T20:17:26.323Z,35.55
2023-02-11T20:19:54.700Z,46.17
2023-02-11T20:22:22.960Z,36.70
2023-02-11T20:24:51.543Z,35.42
2023-02-11T20:27:20.685Z,34.42
2023-02-11T20:29:48.636Z,38.03
2023-02-11T20:32:16.860Z,35.83
2023-02-11T20:34:44.954Z,34.13
2023-02-11T20:37:12.838Z,37.30
2023-02-11T20:39:42.079Z,35.85
2023-02-11T20:42:12.049Z,36.75
2023-02-11T20:44:39.635Z,37.10
2023-02-11T20:47:08.075Z,39.58
2023-02-11T20:49:36.358Z,35.42
2023-02-11T20:52:09.483Z,30.52
2023-02-11T20:54:37.256Z,30.05
2023-02-11T20:57:05.933Z,38.38
2023-02-11T20:59:34.129Z,31.27
2023-02-11T21:02:02.374Z,34.00
2023-02-11T21:04:33.215Z,25.08
2023-02-11T21:07:04.643Z,28.88
2023-02-11T21:09:34.271Z,27.88
2023-02-11T21:12:03.305Z,17.35
2023-02-11T21:14:31.908Z,7.13
2023-02-11T21:17:00.615Z,3.10
2023-02-11T21:19:28.960Z,6.28
2023-02-11T21:22:00.753Z,4.32
2023-02-11T21:24:28.546Z,3.40
2023-02-11T21:26:56.271Z,4.85
2023-02-11T21:29:23.629Z,3.78
2023-02-11T21:31:51.745Z,5.22
2023-02-11T21:34:20.396Z,6.25
2023-02-11T21:36:48.092Z,4.95
2023-02-11T21:39:15.553Z,4.72
2023-02-11T21:41:43.243Z,4.18
2023-02-11T21:44:11.034Z,3.10
2023-02-11T21:46:39.033Z,8.85
2023-02-11T21:49:06.413Z,3.10
2023-02-11T21:51:34.055Z,4.28
2023-02-11T21:54:02.576Z,6.30
2023-02-11T21:56:32.119Z,6.50
2023-02-11T21:59:00.386Z,4.45
2023-02-11T22:01:32.833Z,3.65
2023-02-11T22:04:00.598Z,6.00
2023-02-11T22:06:31.291Z,6.75
2023-02-11T22:08:59.784Z,3.20
2023-02-11T22:11:27.709Z,9.95
2023-02-11T22:13:56.535Z,2.95
2023-02-11T22:16:24.523Z,5.10
2023-02-11T22:18:52.168Z,5.07
2023-02-11T22:21:22.720Z,8.55
2023-02-11T22:23:51.104Z,7.75
2023-02-11T22:26:21.424Z,7.32
2023-02-11T22:28:51.591Z,4.57
2023-02-11T22:31:31.474Z,6.15
2023-02-11T22:33:59.916Z,5.03
2023-02-11T22:36:33.315Z,3.80
2023-02-11T22:39:10.827Z,7.43
2023-02-11T22:41:40.826Z,4.65
2023-02-11T22:44:08.620Z,5.88
2023-02-11T22:46:36.389Z,4.03
2023-02-11T22:49:04.306Z,4.60
2023-02-11T22:51:32.379Z,4.13
2023-02-11T22:54:02.069Z,4.30
2023-02-11T22:56:31.607Z,7.53
2023-02-11T22:59:00.704Z,4.40
2023-02-11T23:01:29.718Z,5.68
2023-02-11T23:03:57.400Z,3.97
2023-02-11T23:06:25.149Z,5.15
2023-02-11T23:08:52.404Z,5.97
2023-02-11T23:11:26.483Z,5.10
2023-02-11T23:13:54.632Z,4.95
2023-02-11T23:16:24.544Z,3.90
2023-02-11T23:18:53.561Z,4.88
2023-02-11T23:21:25.783Z,4.90
2023-02-11T23:24:02.198Z,6.10
2023-02-11T23:26:31.038Z,6.88
2023-02-11T23:28:59.280Z,7.03
2023-02-11T23:31:34.228Z,12.57
2023-02-11T23:34:02.606Z,6.72
2023-02-11T23:36:31.334Z,3.13
2023-02-11T23:38:59.041Z,4.65
2023-02-11T23:41:27.473Z,4.70
2023-02-11T23:43:57.341Z,4.38
2023-02-11T23:46:28.740Z,6.32
2023-02-11T23:48:56.409Z,7.82
2023-02-11T23:51:24.755Z,4.97
2023-02-11T23:53:52.840Z,6.28
2023-02-11T23:56:26.554Z,6.75
2023-02-11T23:58:56.057Z,4.05
